Skip Navigation Links
NOAA logo - Click to go to the NOAA homepage
NOAA's National Weather Service
Alaska Aviation Weather Unit
  NWS logo - Click to go to the NWS homepage
Left Navbar Graphic     08 AKDT = 16 GMT

   
NOAA is celebrating 200 years of science, service, and stewardship. Visit the NOAA 200th celebration Web site to learn more.
USA.gov is the U.S. Government's official Web portal to all Federal, state and local government Web resources and services.
Facebook
NWS on Facebook

Important Change Regarding the AAWU Web Presence

 

Over the last several months, the AAWU has been working to navigate its webpages to a nationally supported server. Security, as well as other needs, have necessitated the change.  In the process, we have made an effort to enhance the functionality of our website, as well as some of our products. As of June 20, 2017, aawu.arh.noaa.gov will be discontinued. The new AAWU web address is weather.gov/aawu. It is now live and will run in-parallel with the old site until it is discontinued. Please send any feedback or questions regarding the new webpages to nws.ar.aawu.webauthors@noaa.gov.  Thank you for your patience during this time of transition.
AAWU Home :: Display TAF Add Bookmark
TAF PAKW 231513Z 2315/2412 00000KT P6SM -SHRA SCT005 OVC015
      TEMPO 2315/2318 3SM -SHRA BR OVC005
     FM232000 24008KT P6SM -SHRA SCT015 OVC025
     FM240000 24012KT P6SM VCSH SCT020 BKN035 WS020/32030KT
      AMD LTD TO CLD VIS AND WIND=

SPECI PAKW 231016Z AUTO 00000KT 4SM RA BR OVC004 09/08 A2982 RMK AO2 P0003 T00940083 TSNO $= METAR PAKW 231053Z AUTO 00000KT 3SM -RA BR OVC005 09/08 A2981 RMK AO2 SLP094 P0005 T00940083 TSNO $= SPECI PAKW 231142Z AUTO 00000KT 1 1/4SM RA BR OVC008 09/08 A2979 RMK AO2 P0005 T00940083 TSNO $= SPECI PAKW 231151Z AUTO 00000KT 2SM -RA BR OVC008 09/08 A2979 RMK AO2 P0007 TSNO $= METAR PAKW 231153Z AUTO 00000KT 2 1/2SM -RA BR OVC008 09/08 A2979 RMK AO2 SLP087 P0007 60035 70092 T00940083 10100 20094 56028 TSNO $= SPECI PAKW 231226Z AUTO 00000KT 1 1/2SM RA BR OVC008 09/08 A2978 RMK AO2 P0013 T00940083 TSNO $= SPECI PAKW 231237Z AUTO 00000KT 2SM RA BR BKN010 OVC031 09/08 A2978 RMK AO2 P0018 T00890078 TSNO $= SPECI PAKW 231245Z AUTO 22004KT 2 1/2SM RA BR FEW006 BKN015 OVC031 09/08 A2978 RMK AO2 P0020 T00890078 TSNO $= METAR PAKW 231253Z AUTO 20004KT 4SM -RA BR BKN021 BKN030 OVC044 09/08 A2978 RMK AO2 SLP084 P0021 T00890078 TSNO $= SPECI PAKW 231302Z AUTO 00000KT 4SM -RA BR FEW005 OVC033 09/08 A2978 RMK AO2 P0001 T00890078 TSNO $= SPECI PAKW 231327Z AUTO 22003KT 5SM -RA BR BKN005 OVC043 09/08 A2977 RMK AO2 P0004 T00890078 TSNO $= METAR PAKW 231353Z AUTO 22004KT 10SM -RA BKN007 OVC011 09/08 A2977 RMK AO2 CIG 003V008 SLP081 P0005 T00890078 TSNO $= SPECI PAKW 231405Z AUTO 00000KT 10SM SCT008 OVC014 09/08 A2977 RMK AO2 RAE01 P0000 T00890078 TSNO= SPECI PAKW 231414Z AUTO 00000KT 10SM BKN008 OVC015 09/08 A2977 RMK AO2 RAE01 CIG 006V010 P0000 T00890078 TSNO= METAR PAKW 231453Z AUTO 20003KT 10SM -RA BKN005 OVC016 09/08 A2977 RMK AO2 RAE01B44 SLP081 P0000 60026 T00940083 56006 TSNO= SPECI PAKW 231505Z AUTO 00000KT 10SM SCT006 OVC016 09/08 A2977 RMK AO2 RAE02 P0000 T00940083 TSNO= METAR PAKW 231553Z AUTO 20004KT 10SM SCT006 OVC019 10/08 A2977 RMK AO2 RAE02 SLP082 P0000 T01000083 TSNO= SPECI PAKW 231638Z AUTO 23005KT 10SM FEW008 BKN014 OVC036 10/09 A2978 RMK AO2 T01000089 TSNO=
 Alaska TAF Map

NOAA's National Weather Service
Alaska Aviation Weather Unit
6930 Sand Lake Road
Anchorage, AK 99502-1845
Disclaimer
Credits
Glossary
Privacy Policy
About Us
Career Opportunities
Contact AAWU Internet Services Site last modified: April, 17th 2012